Portada
METAR-TAF:

METAR-TAF

Aeroports :

Aeroport Internacional Amata Kabua

Majuro, Illes Marshall

latitud: 07-04N, longitud: 171-17E, altitud: 2 m

Observació

L'informe es va fer fa 12 minuts, a les 06:53 UTC
Vent 11 kt del Nord-Est
Temperatura 30°C
Humitat 75%
Pressió 1009 hPa
Visibilitat: 24.1 km
Escasses núvols a una alçada de 1500 ft
Núvols disperses a una alçada de 5000 ft
Cel ennuvolat a una alçada de 30000 ft

METAR: PKMJ 240653Z 04011KT 15SM FEW015 SCT050 BKN300 30/25 A2980

Hora: 19:05 (07:05 UTC)

Pronòstic

L'informe es va fer fa 1 hora i 37 minuts, a les 05:28 UTC
Pronòstic vàlid del 24 a les 06 UTC al 25 a les 06 UTC
Vent 15 kt del Nord-Est
Visibilitat: 10 km
Núvols disperses a una alçada de 2500 ft
Núvols disperses a una alçada de 5000 ft
xàfecs en les proximitats
Temporalment
l' 24 a les 06 UTC al 24 a les 09 UTC
Cel ennuvolat a una alçada de 5000 ft

TAF: PKMJ 240528Z 2406/2506 05015KT P6SM VCSH SCT025 SCT050 TEMPO 2406/2409 BKN050

Observacions i pronòstics meteorològics de més de 4000 aeroports (METAR i TAF).

Les estacions disponibles són els punts grocs i vermells al mapa.

Posi el ratolí al punt desitjat per veure el nom de l'estació.

Feu clic per veure les observacions i els pronòstics meteorològics.

Per canviar el mapa: feu clic els botons verds amb una creu de color negre per apropar; al botó verd amb un guió per allunyar la imatge; o en les fletxes verdes per a mapes adjacents.


METAR-TAF: